Time;durP1;ratioP1;P1;durP2;ratioP2;P2;SDS_P1;SDS_P2;PMS_P1;PMS_P2;Temp;Humidity;BMP_temperature;BMP_pressure;BME280_temperature;BME280_humidity;BME280_pressure;Samples;Min_cycle;Max_cycle;Signal;HPM_P1;HPM_P2
2021/03/02 00:01:47;;;;;;;46.60;27.60;;;7.20;69.40;;;;;;5102430;28;20031;-67
2021/03/02 00:04:13;;;;;;;44.05;27.08;;;7.20;69.30;;;;;;5100679;28;20044;-67
2021/03/02 00:06:40;;;;;;;45.88;27.40;;;7.20;69.40;;;;;;5082794;28;20012;-69
2021/03/02 00:09:06;;;;;;;46.60;27.52;;;7.10;69.50;;;;;;5083941;28;20042;-68
2021/03/02 00:11:32;;;;;;;47.10;27.73;;;7.10;69.60;;;;;;5085480;28;20085;-66
2021/03/02 00:13:59;;;;;;;45.78;28.15;;;7.10;69.70;;;;;;5103715;28;20032;-66
2021/03/02 00:16:26;;;;;;;47.80;27.65;;;7.10;69.70;;;;;;5103413;27;20038;-68
2021/03/02 00:18:58;;;;;;;48.30;28.15;;;7.10;69.60;;;;;;5071858;28;20035;-66
2021/03/02 00:21:32;;;;;;;45.60;28.48;;;7.10;69.90;;;;;;5102061;28;20028;-67
2021/03/02 00:24:02;;;;;;;47.55;27.73;;;7.00;68.80;;;;;;5097906;28;20118;-68
2021/03/02 00:26:32;;;;;;;51.70;28.50;;;7.00;68.60;;;;;;5088115;28;20035;-66
2021/03/02 00:29:02;;;;;;;46.22;28.30;;;7.00;68.60;;;;;;5080169;28;20027;-67
2021/03/02 00:31:28;;;;;;;44.28;27.20;;;6.90;68.50;;;;;;5099800;28;20034;-66
2021/03/02 00:33:54;;;;;;;41.40;26.17;;;6.90;68.70;;;;;;5083565;28;20088;-69
2021/03/02 00:36:20;;;;;;;41.83;26.35;;;6.80;68.90;;;;;;5085553;28;20032;-68
2021/03/02 00:38:46;;;;;;;47.97;27.65;;;6.80;68.90;;;;;;5085717;28;20024;-67
2021/03/02 00:41:12;;;;;;;44.22;27.17;;;6.70;68.80;;;;;;5103310;27;20548;-68
2021/03/02 00:43:38;;;;;;;43.10;26.88;;;6.70;68.60;;;;;;5103471;28;20036;-68
2021/03/02 00:46:03;;;;;;;52.92;28.13;;;6.70;68.80;;;;;;5086267;28;20043;-67
2021/03/02 00:48:29;;;;;;;44.42;27.80;;;6.60;68.80;;;;;;5088048;27;20337;-66
2021/03/02 00:50:55;;;;;;;42.20;27.33;;;6.60;68.80;;;;;;5108257;27;20027;-68
2021/03/02 00:53:21;;;;;;;50.97;27.23;;;6.50;68.80;;;;;;5086814;28;20043;-69
2021/03/02 00:55:47;;;;;;;50.60;27.73;;;6.50;69.10;;;;;;5102796;28;20103;-67
2021/03/02 00:58:12;;;;;;;42.40;27.05;;;6.50;69.20;;;;;;5104514;28;20114;-66
2021/03/02 01:00:38;;;;;;;49.15;27.73;;;6.50;69.20;;;;;;5082341;28;20039;-67
2021/03/02 01:03:04;;;;;;;49.33;26.70;;;6.50;69.10;;;;;;5100500;28;20055;-67
2021/03/02 01:05:30;;;;;;;48.00;26.77;;;6.40;69.20;;;;;;5099685;28;20513;-67
2021/03/02 01:07:55;;;;;;;46.53;28.13;;;6.40;69.20;;;;;;5100742;28;20099;-68
2021/03/02 01:10:21;;;;;;;45.10;27.15;;;6.30;69.10;;;;;;5099532;28;20028;-68
2021/03/02 01:12:47;;;;;;;43.50;27.08;;;6.30;69.10;;;;;;5099061;28;20028;-69
2021/03/02 01:15:13;;;;;;;49.70;27.70;;;6.30;69.10;;;;;;5099945;28;20175;-68
2021/03/02 01:17:39;;;;;;;39.85;25.75;;;6.30;69.10;;;;;;5079552;28;20035;-67
2021/03/02 01:20:07;;;;;;;43.95;27.27;;;6.20;69.20;;;;;;5081323;28;20027;-67
2021/03/02 01:22:33;;;;;;;45.47;27.75;;;6.20;69.20;;;;;;5099330;28;20038;-66
2021/03/02 01:24:58;;;;;;;49.35;27.58;;;6.10;69.30;;;;;;5091310;28;20040;-67
2021/03/02 01:27:24;;;;;;;46.40;26.80;;;6.10;69.40;;;;;;5099272;28;20054;-68
2021/03/02 01:29:50;;;;;;;46.15;26.77;;;6.00;69.50;;;;;;5080139;28;20019;-67
2021/03/02 01:32:15;;;;;;;44.85;26.92;;;6.00;69.50;;;;;;5076835;28;20140;-67
2021/03/02 01:34:41;;;;;;;44.50;25.55;;;6.00;69.50;;;;;;5101785;27;20066;-67
2021/03/02 01:37:07;;;;;;;46.17;28.23;;;6.00;69.50;;;;;;5097917;28;20032;-68
2021/03/02 01:39:32;;;;;;;45.58;27.20;;;6.00;69.40;;;;;;5063935;28;20136;-67
2021/03/02 01:41:59;;;;;;;45.40;27.38;;;6.00;69.30;;;;;;5097124;28;20466;-67
2021/03/02 01:44:27;;;;;;;41.83;26.13;;;6.00;69.30;;;;;;5078779;28;20552;-68
2021/03/02 01:46:53;;;;;;;46.97;26.65;;;6.00;69.40;;;;;;5097955;28;20447;-68
2021/03/02 01:49:18;;;;;;;45.85;26.70;;;6.00;69.50;;;;;;5098432;28;20036;-67
2021/03/02 01:51:44;;;;;;;43.70;26.13;;;5.90;69.50;;;;;;5098281;28;20421;-66
2021/03/02 01:54:14;;;;;;;43.70;26.42;;;5.90;69.60;;;;;;5100572;28;20053;-68
2021/03/02 01:56:40;;;;;;;46.00;26.55;;;5.90;69.50;;;;;;5094666;28;20036;-67
2021/03/02 01:59:06;;;;;;;43.47;26.58;;;5.90;69.60;;;;;;5080599;28;20024;-68
2021/03/02 02:01:33;;;;;;;44.22;26.75;;;5.80;69.60;;;;;;5097112;28;20028;-67
2021/03/02 02:04:08;;;;;;;50.67;27.42;;;5.80;69.30;;;;;;5078705;28;20027;-67
2021/03/02 02:06:39;;;;;;;46.15;26.67;;;5.90;69.60;;;;;;5097652;27;20035;-68
2021/03/02 02:09:25;;;;;;;43.88;27.23;;;5.90;70.00;;;;;;5100343;28;20024;-67
2021/03/02 02:12:12;;;;;;;48.08;27.00;;;5.80;70.00;;;;;;5081895;28;20127;-68
2021/03/02 02:14:51;;;;;;;48.15;27.45;;;5.90;70.10;;;;;;5081415;28;20401;-67
2021/03/02 02:17:23;;;;;;;45.75;26.35;;;5.90;70.30;;;;;;5102242;28;20134;-67
2021/03/02 02:20:01;;;;;;;48.30;28.30;;;5.80;70.50;;;;;;5080601;28;20457;-66
2021/03/02 02:22:55;;;;;;;48.67;28.00;;;5.80;70.70;;;;;;5079971;28;20035;-68
2021/03/02 02:25:26;;;;;;;45.30;28.27;;;5.80;70.80;;;;;;5102665;28;20034;-70
2021/03/02 02:27:56;;;;;;;49.92;29.20;;;5.80;70.70;;;;;;5074445;28;20089;-67
2021/03/02 02:30:22;;;;;;;49.95;28.73;;;5.80;70.70;;;;;;5096722;28;20039;-68
2021/03/02 02:32:50;;;;;;;48.90;28.83;;;5.90;70.80;;;;;;5100165;28;20035;-67
2021/03/02 02:35:20;;;;;;;47.03;28.85;;;6.00;70.50;;;;;;5085348;28;20028;-68
2021/03/02 02:37:48;;;;;;;53.22;29.90;;;6.10;70.30;;;;;;5118150;27;20115;-68
2021/03/02 02:40:16;;;;;;;49.97;27.40;;;6.10;70.30;;;;;;5107847;28;20277;-66
2021/03/02 02:42:44;;;;;;;44.80;28.13;;;6.10;70.20;;;;;;5111097;28;20036;-68
2021/03/02 02:45:11;;;;;;;48.83;29.70;;;6.20;70.20;;;;;;5108706;28;20034;-67
2021/03/02 02:47:38;;;;;;;49.60;28.83;;;6.20;70.10;;;;;;5091696;28;20036;-66
2021/03/02 02:50:05;;;;;;;49.13;30.15;;;6.20;70.10;;;;;;5100338;28;20089;-68
2021/03/02 02:52:32;;;;;;;49.63;30.67;;;6.20;69.90;;;;;;5090398;28;20036;-67
2021/03/02 02:54:58;;;;;;;54.45;31.08;;;6.20;70.00;;;;;;5098883;28;20028;-67
2021/03/02 02:57:27;;;;;;;51.90;29.38;;;6.30;70.00;;;;;;5078708;28;20031;-67
2021/03/02 02:59:53;;;;;;;48.95;27.70;;;6.30;70.00;;;;;;5102365;28;20028;-68
2021/03/02 03:02:25;;;;;;;48.50;29.27;;;6.20;70.40;;;;;;5103038;28;20046;-67
2021/03/02 03:04:55;;;;;;;51.13;28.60;;;6.20;70.60;;;;;;5080050;28;20036;-66
2021/03/02 03:07:37;;;;;;;45.15;26.92;;;6.20;70.80;;;;;;5081686;28;20032;-70
2021/03/02 03:10:06;;;;;;;48.30;28.73;;;6.20;70.20;;;;;;5094032;28;20489;-67
2021/03/02 03:12:36;;;;;;;44.63;27.10;;;6.10;69.40;;;;;;5085654;28;20118;-67
2021/03/02 03:15:07;;;;;;;45.90;27.63;;;6.00;69.20;;;;;;5108924;28;20024;-68
2021/03/02 03:17:39;;;;;;;46.45;28.33;;;5.90;69.00;;;;;;5086405;28;20039;-68
2021/03/02 03:20:07;;;;;;;46.58;27.15;;;5.80;69.10;;;;;;5110561;28;20040;-67
2021/03/02 03:22:34;;;;;;;41.28;25.92;;;5.70;69.40;;;;;;5103365;27;20035;-68
2021/03/02 03:25:01;;;;;;;47.75;26.95;;;5.60;69.60;;;;;;5097939;28;20032;-67
2021/03/02 03:27:30;;;;;;;47.85;26.75;;;5.60;69.50;;;;;;5102879;28;20044;-66
2021/03/02 03:29:57;;;;;;;46.38;26.42;;;5.60;69.60;;;;;;5108714;28;20041;-67
2021/03/02 03:32:23;;;;;;;45.17;27.17;;;5.60;69.70;;;;;;5088938;28;20043;-68
2021/03/02 03:34:50;;;;;;;42.95;25.90;;;5.50;69.80;;;;;;5075071;28;20035;-69
2021/03/02 03:37:16;;;;;;;46.35;26.38;;;5.40;69.80;;;;;;5105984;28;20028;-67
2021/03/02 03:39:42;;;;;;;49.20;26.95;;;5.50;69.60;;;;;;5109123;28;20493;-67
2021/03/02 03:42:08;;;;;;;47.30;25.88;;;5.40;69.50;;;;;;5085847;28;20028;-67
2021/03/02 03:44:33;;;;;;;42.28;24.52;;;5.50;69.20;;;;;;5089883;28;20391;-67
2021/03/02 03:47:01;;;;;;;40.55;25.45;;;5.50;69.80;;;;;;5106308;28;20446;-67
2021/03/02 03:49:27;;;;;;;48.70;25.52;;;5.50;69.20;;;;;;5101093;28;20023;-67
2021/03/02 03:51:54;;;;;;;41.33;25.05;;;5.50;69.20;;;;;;5082777;28;20032;-66
2021/03/02 03:54:23;;;;;;;42.80;24.70;;;5.50;69.20;;;;;;5083218;28;20514;-69
2021/03/02 03:56:52;;;;;;;42.88;26.30;;;5.40;69.30;;;;;;5105787;28;20027;-67
2021/03/02 03:59:21;;;;;;;46.28;26.55;;;5.40;69.50;;;;;;5093459;28;20384;-67
2021/03/02 04:01:47;;;;;;;46.40;25.90;;;5.40;69.40;;;;;;5102722;28;20059;-67
2021/03/02 04:04:13;;;;;;;41.40;26.00;;;5.40;69.30;;;;;;5095319;28;20071;-67
2021/03/02 04:06:39;;;;;;;41.85;25.10;;;5.40;69.50;;;;;;5081956;28;20038;-66
2021/03/02 04:09:05;;;;;;;45.03;25.67;;;5.40;69.50;;;;;;5105470;28;20036;-66
2021/03/02 04:11:35;;;;;;;46.40;25.90;;;5.40;69.50;;;;;;5110839;28;20465;-67
2021/03/02 04:14:01;;;;;;;47.03;26.25;;;5.30;69.60;;;;;;5087242;28;20525;-67
2021/03/02 04:16:26;;;;;;;45.47;25.88;;;5.30;69.60;;;;;;5110862;27;20118;-67
2021/03/02 04:18:52;;;;;;;45.05;25.35;;;5.30;69.80;;;;;;5097751;28;20084;-68
2021/03/02 04:21:19;;;;;;;45.35;27.02;;;5.30;69.80;;;;;;5097347;28;20108;-67
2021/03/02 04:23:44;;;;;;;42.50;25.63;;;5.30;70.00;;;;;;5099363;28;20155;-69
2021/03/02 04:26:10;;;;;;;45.92;26.90;;;5.30;69.80;;;;;;5099779;28;20481;-70
2021/03/02 04:28:36;;;;;;;42.92;25.95;;;5.30;69.70;;;;;;5108496;28;20059;-68
2021/03/02 04:31:01;;;;;;;47.38;27.00;;;5.30;69.70;;;;;;5083186;28;20473;-67
2021/03/02 04:33:27;;;;;;;44.42;26.13;;;5.30;69.70;;;;;;5055833;28;20111;-67
2021/03/02 04:35:53;;;;;;;47.00;27.42;;;5.30;69.70;;;;;;5103165;28;20034;-67
2021/03/02 04:38:19;;;;;;;48.15;26.02;;;5.30;69.80;;;;;;5107203;28;20031;-68
2021/03/02 04:40:45;;;;;;;48.67;27.13;;;5.30;69.90;;;;;;5103629;28;20478;-68
2021/03/02 04:43:10;;;;;;;51.05;27.58;;;5.20;69.90;;;;;;5089897;28;20024;-69
2021/03/02 04:45:36;;;;;;;41.50;24.58;;;5.30;70.20;;;;;;5096592;28;20153;-68
2021/03/02 04:48:02;;;;;;;46.92;27.58;;;5.30;70.20;;;;;;5084538;28;20466;-68
2021/03/02 04:50:28;;;;;;;48.05;27.17;;;5.30;70.10;;;;;;5103140;28;20028;-67
2021/03/02 04:52:54;;;;;;;52.42;27.90;;;5.20;70.10;;;;;;5090382;28;20470;-68
2021/03/02 04:55:20;;;;;;;46.92;27.55;;;5.20;70.20;;;;;;5101171;28;20390;-67
2021/03/02 04:57:46;;;;;;;43.85;25.88;;;5.20;70.30;;;;;;5106968;28;20508;-67
2021/03/02 05:00:12;;;;;;;45.40;27.83;;;5.20;70.10;;;;;;5101154;28;20102;-67
2021/03/02 05:02:38;;;;;;;46.72;26.42;;;5.20;70.00;;;;;;5101028;28;20039;-68
2021/03/02 05:05:05;;;;;;;46.00;27.60;;;5.20;70.00;;;;;;5081781;28;20466;-67
2021/03/02 05:07:31;;;;;;;49.58;26.55;;;5.20;70.10;;;;;;5108723;28;20035;-68
2021/03/02 05:09:57;;;;;;;47.70;26.65;;;5.20;70.10;;;;;;5088945;28;20396;-68
2021/03/02 05:12:22;;;;;;;45.53;25.77;;;5.20;70.00;;;;;;5079899;28;20094;-67
2021/03/02 05:14:48;;;;;;;48.35;26.95;;;5.20;70.30;;;;;;5091201;28;20084;-68
2021/03/02 05:17:14;;;;;;;48.13;27.10;;;5.20;70.20;;;;;;5089636;28;20038;-67
2021/03/02 05:19:39;;;;;;;48.78;26.70;;;5.20;70.20;;;;;;5097771;28;20143;-67
2021/03/02 05:22:05;;;;;;;46.22;26.38;;;5.20;70.10;;;;;;5102098;28;20051;-67
2021/03/02 05:24:31;;;;;;;47.10;26.80;;;5.20;69.90;;;;;;5072251;28;20058;-68
2021/03/02 05:26:56;;;;;;;43.95;26.67;;;5.20;70.00;;;;;;5099460;28;20024;-71
2021/03/02 05:29:22;;;;;;;46.55;27.02;;;5.20;70.00;;;;;;5098355;28;20050;-68
2021/03/02 05:31:48;;;;;;;47.97;26.55;;;5.20;69.80;;;;;;5102857;28;20359;-67
2021/03/02 05:34:14;;;;;;;45.75;28.55;;;5.30;69.70;;;;;;5085310;28;20381;-67
2021/03/02 05:36:40;;;;;;;47.65;27.15;;;5.20;69.60;;;;;;5099822;28;20032;-68
2021/03/02 05:39:24;;;;;;;45.75;26.48;;;5.20;69.70;;;;;;5089489;28;20462;-67
2021/03/02 05:41:51;;;;;;;50.60;28.83;;;5.20;69.70;;;;;;5102952;28;20091;-67
2021/03/02 05:44:17;;;;;;;44.55;27.42;;;5.30;69.80;;;;;;5092099;28;20054;-68
2021/03/02 05:46:43;;;;;;;50.00;28.33;;;5.30;69.70;;;;;;5099176;28;20473;-69
2021/03/02 05:49:14;;;;;;;49.95;27.58;;;5.40;69.50;;;;;;5109084;28;20092;-68
2021/03/02 05:51:41;;;;;;;54.88;31.25;;;5.50;69.60;;;;;;5081383;28;20420;-67
2021/03/02 05:54:08;;;;;;;55.17;31.30;;;5.60;69.70;;;;;;5102450;28;20026;-68
2021/03/02 05:56:41;;;;;;;52.67;30.73;;;5.70;70.20;;;;;;5082128;28;20028;-70
2021/03/02 05:59:07;;;;;;;54.22;31.55;;;5.80;70.60;;;;;;5099890;28;20094;-67
2021/03/02 06:01:33;;;;;;;62.53;32.88;;;5.90;70.90;;;;;;5100315;28;20024;-68
2021/03/02 06:04:00;;;;;;;53.63;31.92;;;5.80;71.90;;;;;;5100354;28;20054;-66
2021/03/02 06:06:25;;;;;;;53.60;32.60;;;5.90;71.40;;;;;;5102917;28;20095;-68
2021/03/02 06:08:51;;;;;;;54.47;32.53;;;6.00;71.30;;;;;;5071732;22;20501;-67
2021/03/02 06:11:31;;;;;;;54.33;32.25;;;6.00;71.10;;;;;;5027746;28;20029;-70
2021/03/02 06:14:28;;;;;;;56.10;32.22;;;6.10;70.90;;;;;;5023740;28;20117;-68
2021/03/02 06:16:55;;;;;;;53.55;31.25;;;6.20;70.70;;;;;;5023958;28;20162;-72
2021/03/02 06:19:47;;;;;;;52.42;31.65;;;6.30;70.20;;;;;;5020102;28;20030;-70
2021/03/02 06:22:38;;;;;;;57.47;32.80;;;6.40;69.80;;;;;;5019335;28;20048;-72
2021/03/02 06:25:06;;;;;;;55.03;32.17;;;6.40;69.30;;;;;;5017116;28;20045;-72
2021/03/02 06:27:32;;;;;;;57.13;33.15;;;6.40;69.10;;;;;;5018976;28;20049;-72
2021/03/02 06:30:11;;;;;;;56.42;34.50;;;6.40;69.10;;;;;;5021362;28;20095;-71
2021/03/02 06:32:41;;;;;;;58.47;34.33;;;6.50;69.00;;;;;;5023969;28;20037;-74
2021/03/02 06:35:08;;;;;;;62.83;34.33;;;6.60;68.60;;;;;;5012910;28;20032;-72
2021/03/02 06:37:52;;;;;;;69.47;36.95;;;6.70;68.30;;;;;;5025698;28;20025;-77
2021/03/02 06:40:34;;;;;;;;;;;6.80;68.20;;;;;;5027742;28;20029;-73
2021/03/02 06:43:00;;;;;;;69.10;37.08;;;6.80;68.00;;;;;;5022906;28;19917;-75
2021/03/02 06:45:25;;;;;;;61.17;35.30;;;6.80;68.20;;;;;;5019685;28;20034;-71
2021/03/02 06:48:04;;;;;;;59.90;35.95;;;6.90;68.00;;;;;;5020972;28;20026;-71
2021/03/02 06:50:37;;;;;;;61.00;34.63;;;7.00;67.60;;;;;;5018153;28;20040;-70
2021/03/02 06:53:11;;;;;;;53.47;34.07;;;7.00;67.30;;;;;;5020951;28;20033;-73
2021/03/02 06:55:39;;;;;;;65.13;36.45;;;7.10;66.90;;;;;;5015083;28;20102;-72
2021/03/02 06:58:18;;;;;;;64.13;36.85;;;7.10;66.80;;;;;;5029963;28;20018;-75
2021/03/02 07:00:52;;;;;;;64.70;36.88;;;7.00;66.90;;;;;;5013250;28;20069;-74
2021/03/02 07:03:34;;;;;;;59.50;35.50;;;7.10;66.90;;;;;;5014638;28;20092;-73
2021/03/02 07:06:08;;;;;;;64.88;36.65;;;7.20;66.60;;;;;;5028319;28;20053;-75
2021/03/02 07:08:34;;;;;;;62.78;35.53;;;7.30;66.10;;;;;;5015058;28;20054;-71
2021/03/02 07:11:01;;;;;;;66.78;38.53;;;7.50;65.90;;;;;;5023836;28;20049;-76
2021/03/02 07:13:31;;;;;;;70.45;41.78;;;7.60;65.40;;;;;;5028808;28;20034;-72
2021/03/02 07:15:58;;;;;;;67.90;40.13;;;7.60;65.40;;;;;;5021059;28;20030;-71
2021/03/02 07:18:28;;;;;;;67.03;38.55;;;7.80;65.20;;;;;;5023558;28;20069;-75
2021/03/02 07:20:56;;;;;;;70.18;40.53;;;7.90;64.10;;;;;;5024092;28;20037;-73
2021/03/02 07:23:23;;;;;;;68.75;38.88;;;8.00;64.10;;;;;;5031593;28;20097;-72
2021/03/02 07:25:50;;;;;;;67.40;40.78;;;8.10;63.60;;;;;;5032367;28;20121;-74
2021/03/02 07:28:21;;;;;;;67.47;39.30;;;8.10;63.10;;;;;;5032670;28;20040;-67
2021/03/02 07:30:48;;;;;;;67.47;39.17;;;8.20;63.30;;;;;;5028689;28;20026;-74
2021/03/02 07:33:15;;;;;;;72.97;39.13;;;8.30;63.10;;;;;;5033041;28;20030;-71
2021/03/02 07:35:41;;;;;;;67.90;39.97;;;8.30;62.40;;;;;;5023185;28;20061;-76
2021/03/02 07:38:14;;;;;;;66.03;39.35;;;8.40;62.60;;;;;;5026763;28;20029;-72
2021/03/02 07:40:54;;;;;;;66.10;38.70;;;8.50;62.60;;;;;;5028196;28;20101;-75
2021/03/02 07:43:35;;;;;;;68.95;39.40;;;8.70;61.90;;;;;;5022985;28;20037;-75
2021/03/02 07:46:21;;;;;;;67.82;38.97;;;8.80;61.20;;;;;;5033413;28;20100;-75
2021/03/02 07:48:47;;;;;;;67.25;39.33;;;8.90;60.90;;;;;;5018914;28;20032;-74
2021/03/02 07:51:23;;;;;;;69.28;40.10;;;8.90;60.50;;;;;;5033632;28;20021;-75
2021/03/02 07:56:35;;;;;;;65.05;38.47;;;8.70;61.20;;;;;;5029617;28;20486;-73
2021/03/02 07:59:17;;;;;;;63.17;37.95;;;8.80;61.10;;;;;;5032426;28;20056;-71
2021/03/02 08:01:43;;;;;;;64.55;39.67;;;8.80;61.20;;;;;;5030374;28;20025;-73
2021/03/02 08:04:15;;;;;;;70.68;41.63;;;8.90;61.10;;;;;;5018447;28;20124;-74
2021/03/02 08:06:50;;;;;;;68.53;41.25;;;8.80;60.60;;;;;;5025514;28;20030;-74
2021/03/02 08:09:25;;;;;;;71.50;42.03;;;8.80;60.90;;;;;;5032007;28;20073;-68
2021/03/02 08:11:52;;;;;;;67.70;40.67;;;8.70;61.40;;;;;;5045346;28;20038;-74
2021/03/02 08:14:18;;;;;;;74.10;43.40;;;8.70;61.80;;;;;;5049300;28;20041;-73
2021/03/02 08:17:01;;;;;;;74.80;44.35;;;8.70;62.30;;;;;;5051626;28;20032;-76
2021/03/02 08:19:48;;;;;;;77.40;43.15;;;8.70;62.40;;;;;;5041068;28;20029;-71
2021/03/02 08:22:20;;;;;;;74.93;42.92;;;8.80;62.40;;;;;;5029733;28;20439;-75
2021/03/02 08:25:01;;;;;;;75.18;43.78;;;8.80;62.00;;;;;;5041838;28;20095;-75
2021/03/02 08:27:58;;;;;;;68.93;38.17;;;8.90;62.20;;;;;;5041339;28;20029;-74
2021/03/02 08:30:36;;;;;;;71.28;39.85;;;9.10;61.00;;;;;;5032339;28;20040;-75
2021/03/02 08:33:10;;;;;;;75.35;39.90;;;9.20;60.30;;;;;;5043518;28;20115;-74
2021/03/02 08:35:39;;;;;;;69.85;41.28;;;9.30;59.60;;;;;;5035743;28;20059;-74
2021/03/02 08:38:07;;;;;;;65.60;37.95;;;9.40;59.80;;;;;;5040363;28;20025;-74
2021/03/02 08:40:33;;;;;;;68.68;40.63;;;9.50;59.50;;;;;;5048822;28;20024;-74
2021/03/02 08:43:06;;;;;;;69.25;40.80;;;9.60;59.00;;;;;;5042848;28;20037;-74
2021/03/02 08:45:40;;;;;;;70.28;41.45;;;9.60;58.60;;;;;;5039919;28;20033;-75
2021/03/02 08:48:15;;;;;;;66.80;41.60;;;9.60;58.90;;;;;;5042553;28;20029;-74
2021/03/02 08:50:42;;;;;;;67.35;40.13;;;9.50;58.90;;;;;;5037679;28;20036;-76
2021/03/02 08:53:54;;;;;;;67.57;41.38;;;9.50;59.30;;;;;;5039669;28;20043;-73
2021/03/02 08:56:25;;;;;;;71.07;39.85;;;9.60;58.80;;;;;;4977952;28;20030;-74
2021/03/02 08:59:11;;;;;;;70.60;42.72;;;9.60;59.10;;;;;;5027426;28;20480;-74
2021/03/02 09:01:38;;;;;;;68.13;42.58;;;9.80;59.50;;;;;;5039714;28;20040;-74
2021/03/02 09:04:17;;;;;;;68.65;41.55;;;9.90;58.80;;;;;;5046037;28;20029;-76
2021/03/02 09:06:47;;;;;;;76.97;42.90;;;9.90;58.50;;;;;;5030837;28;20037;-64
2021/03/02 09:09:15;;;;;;;76.78;44.05;;;10.00;58.00;;;;;;5004967;28;20057;-67
2021/03/02 09:11:43;;;;;;;76.40;45.28;;;10.00;58.60;;;;;;5012226;28;20678;-67
2021/03/02 09:14:18;;;;;;;81.47;46.35;;;10.10;58.30;;;;;;5022183;28;20377;-67
2021/03/02 09:16:48;;;;;;;71.40;44.33;;;10.10;58.00;;;;;;5016721;28;20022;-64
2021/03/02 09:19:17;;;;;;;72.93;44.67;;;10.30;57.90;;;;;;5013093;28;20029;-66
2021/03/02 09:21:46;;;;;;;78.72;46.10;;;10.30;57.50;;;;;;5020484;28;20029;-63
2021/03/02 09:24:17;;;;;;;76.50;44.88;;;10.20;57.60;;;;;;5020847;28;20045;-69
2021/03/02 09:26:58;;;;;;;79.20;47.35;;;10.10;58.00;;;;;;5014697;28;20025;-63
2021/03/02 09:29:26;;;;;;;82.40;47.60;;;10.10;58.30;;;;;;5020989;28;20028;-70
2021/03/02 09:31:56;;;;;;;81.07;47.75;;;10.20;57.90;;;;;;5015395;28;20033;-68
2021/03/02 09:34:44;;;;;;;80.20;47.00;;;10.10;57.90;;;;;;5018610;28;20118;-64
2021/03/02 09:37:18;;;;;;;79.20;46.65;;;10.30;57.90;;;;;;5017043;28;20361;-62
2021/03/02 09:40:12;;;;;;;85.97;47.15;;;10.40;57.20;;;;;;5017225;28;20084;-65
2021/03/02 09:42:40;;;;;;;80.75;46.17;;;10.50;57.00;;;;;;5023779;28;20033;-63
2021/03/02 09:45:17;;;;;;;91.53;49.30;;;10.40;57.00;;;;;;5018613;28;21152;-65
2021/03/02 09:47:45;;;;;;;89.57;50.55;;;10.40;57.10;;;;;;5017167;28;20034;-68
2021/03/02 09:50:15;;;;;;;88.50;51.25;;;10.50;57.80;;;;;;5023175;28;20025;-64
2021/03/02 09:52:50;;;;;;;99.68;52.67;;;10.70;57.50;;;;;;5022287;28;20083;-71
2021/03/02 09:55:16;;;;;;;88.53;52.22;;;10.90;56.50;;;;;;5013124;28;20072;-69
2021/03/02 09:58:01;;;;;;;88.10;51.92;;;11.00;56.20;;;;;;5023882;28;20256;-68
2021/03/02 10:00:33;;;;;;;89.57;52.53;;;11.00;55.60;;;;;;5002790;28;20770;-70
2021/03/02 10:03:07;;;;;;;86.28;50.20;;;10.80;56.30;;;;;;5008762;28;20041;-68
2021/03/02 10:05:36;;;;;;;95.55;51.60;;;11.10;55.60;;;;;;5021849;28;20554;-67
2021/03/02 10:08:20;;;;;;;93.25;53.47;;;11.20;55.10;;;;;;5017630;28;20040;-66
2021/03/02 10:10:47;;;;;;;91.05;51.70;;;11.40;54.90;;;;;;5058984;28;20036;-75
2021/03/02 10:13:28;;;;;;;90.22;53.60;;;11.40;54.60;;;;;;5043412;28;20165;-76
2021/03/02 10:16:16;;;;;;;89.60;51.65;;;11.60;54.20;;;;;;5037172;28;20048;-79
2021/03/02 10:19:01;;;;;;;89.07;53.42;;;11.70;53.70;;;;;;5066350;28;20086;-78
2021/03/02 10:21:39;;;;;;;87.93;52.15;;;11.70;53.30;;;;;;5048572;28;20123;-69
2021/03/02 10:24:05;;;;;;;87.00;52.08;;;11.50;53.90;;;;;;5056984;28;20558;-69
2021/03/02 10:26:50;;;;;;;85.78;49.22;;;11.50;53.80;;;;;;5062834;28;20098;-70
2021/03/02 10:29:16;;;;;;;86.70;52.03;;;11.70;53.80;;;;;;5050190;28;20066;-75
2021/03/02 10:31:42;;;;;;;97.70;55.70;;;11.80;53.20;;;;;;5034780;28;20194;-76
2021/03/02 10:34:10;;;;;;;86.50;51.97;;;11.70;53.40;;;;;;5049453;28;20475;-63
2021/03/02 10:36:40;;;;;;;93.15;53.38;;;11.70;53.50;;;;;;5060249;28;20029;-64
2021/03/02 10:39:08;;;;;;;91.40;52.78;;;11.60;53.50;;;;;;5039617;28;20037;-63
2021/03/02 10:41:35;;;;;;;92.57;52.05;;;11.30;54.40;;;;;;5034821;28;20550;-61
2021/03/02 10:44:01;;;;;;;89.70;52.85;;;11.20;54.80;;;;;;5030074;28;20036;-64
2021/03/02 10:46:29;;;;;;;87.80;52.95;;;11.00;55.00;;;;;;5051405;28;20116;-63
2021/03/02 10:48:56;;;;;;;87.82;52.60;;;10.90;55.60;;;;;;5052144;28;20029;-67
2021/03/02 10:51:24;;;;;;;88.30;54.92;;;11.10;55.70;;;;;;5065628;28;20074;-68
2021/03/02 10:53:51;;;;;;;90.65;53.33;;;11.20;55.00;;;;;;5053557;28;20086;-63
2021/03/02 10:56:17;;;;;;;97.22;51.88;;;11.10;55.40;;;;;;5041095;28;20055;-64
2021/03/02 10:58:44;;;;;;;91.53;54.15;;;11.00;55.80;;;;;;5047604;28;20279;-63
2021/03/02 11:01:10;;;;;;;96.35;55.55;;;10.90;56.20;;;;;;5056285;28;20240;-63
2021/03/02 11:03:36;;;;;;;88.10;51.50;;;10.90;56.50;;;;;;5060891;28;20037;-62
2021/03/02 11:06:06;;;;;;;90.30;53.75;;;10.90;57.30;;;;;;5039509;28;20035;-64
2021/03/02 11:08:34;;;;;;;94.32;52.30;;;11.00;56.60;;;;;;5066159;28;20041;-64
2021/03/02 11:10:59;;;;;;;96.10;54.50;;;11.20;56.00;;;;;;5058660;28;20099;-62
2021/03/02 11:13:25;;;;;;;91.18;52.30;;;11.10;56.00;;;;;;5066371;28;20035;-63
2021/03/02 11:15:51;;;;;;;93.25;53.50;;;11.20;55.80;;;;;;5050179;28;20041;-63
2021/03/02 11:18:16;;;;;;;84.97;50.95;;;11.10;56.40;;;;;;5043905;28;20478;-63
2021/03/02 11:20:43;;;;;;;87.85;51.35;;;11.10;56.30;;;;;;5043238;28;20045;-62
2021/03/02 11:23:09;;;;;;;89.47;52.38;;;11.20;56.20;;;;;;5051101;28;20032;-62
2021/03/02 11:25:35;;;;;;;87.50;52.85;;;11.20;56.30;;;;;;5036930;28;20029;-62
2021/03/02 11:28:15;;;;;;;86.55;51.50;;;11.30;56.80;;;;;;5061451;28;20025;-65
2021/03/02 11:30:46;;;;;;;91.32;53.38;;;11.50;55.80;;;;;;5043481;28;20090;-69
2021/03/02 11:33:13;;;;;;;88.07;52.40;;;11.50;55.60;;;;;;5049967;28;20029;-64
2021/03/02 11:35:40;;;;;;;89.95;51.33;;;11.60;55.80;;;;;;5052264;28;20032;-63
2021/03/02 11:38:07;;;;;;;82.53;49.88;;;11.80;55.00;;;;;;5062189;28;20032;-64
2021/03/02 11:40:36;;;;;;;87.15;51.92;;;11.60;55.10;;;;;;5043293;28;20086;-68
2021/03/02 11:43:03;;;;;;;92.60;54.60;;;11.50;55.60;;;;;;5041549;28;20127;-67
2021/03/02 11:45:31;;;;;;;88.78;53.13;;;11.60;55.40;;;;;;5032218;28;21152;-66
2021/03/02 11:47:57;;;;;;;88.38;54.10;;;11.60;54.90;;;;;;5028793;28;20119;-61
2021/03/02 11:50:24;;;;;;;129.10;82.85;;;11.50;55.40;;;;;;5056095;28;20032;-63
2021/03/02 11:52:50;;;;;;;82.95;54.05;;;11.50;55.30;;;;;;5043688;28;20052;-62
2021/03/02 11:55:18;;;;;;;91.55;54.88;;;11.70;55.20;;;;;;5036606;28;20028;-62
2021/03/02 11:57:44;;;;;;;85.82;52.03;;;11.80;54.40;;;;;;5042975;28;20032;-64
2021/03/02 12:00:21;;;;;;;86.95;53.35;;;11.90;54.50;;;;;;5021759;28;20063;-63
2021/03/02 12:02:49;;;;;;;90.78;52.63;;;11.70;54.70;;;;;;5058151;28;20033;-63
2021/03/02 12:05:17;;;;;;;83.72;51.13;;;11.70;55.00;;;;;;5037968;28;20033;-68
2021/03/02 12:07:43;;;;;;;112.78;72.03;;;11.90;54.70;;;;;;5030594;28;20438;-63
2021/03/02 12:10:11;;;;;;;91.72;55.40;;;12.10;54.20;;;;;;5040359;28;20045;-67
2021/03/02 12:12:38;;;;;;;105.43;60.85;;;12.20;54.50;;;;;;5031154;28;20044;-59
2021/03/02 12:15:05;;;;;;;120.32;78.03;;;12.20;53.60;;;;;;5038079;28;20068;-66
2021/03/02 12:17:31;;;;;;;88.28;55.20;;;12.20;53.70;;;;;;5014901;28;20025;-63
2021/03/02 12:20:00;;;;;;;89.38;50.95;;;12.20;53.50;;;;;;5041483;28;20309;-61
2021/03/02 12:22:38;;;;;;;85.95;50.78;;;12.30;53.50;;;;;;5046646;28;20037;-63
2021/03/02 12:25:08;;;;;;;87.60;52.83;;;12.40;53.20;;;;;;5066451;28;20082;-62
2021/03/02 12:27:35;;;;;;;83.53;50.20;;;12.30;53.50;;;;;;5017436;28;20031;-66
2021/03/02 12:30:01;;;;;;;78.72;48.13;;;12.40;53.40;;;;;;5059633;28;20581;-67
2021/03/02 12:32:28;;;;;;;77.07;49.83;;;12.40;53.40;;;;;;5035601;28;20036;-64
2021/03/02 12:34:54;;;;;;;81.53;50.58;;;12.30;53.60;;;;;;5057886;28;20087;-64
2021/03/02 12:37:20;;;;;;;79.00;49.25;;;12.40;53.40;;;;;;5038122;28;20033;-64
2021/03/02 12:39:46;;;;;;;78.70;49.75;;;12.60;53.40;;;;;;5060287;28;20021;-63
2021/03/02 12:42:12;;;;;;;79.22;47.45;;;12.80;52.70;;;;;;5039777;28;20529;-66
2021/03/02 12:44:38;;;;;;;72.68;46.92;;;12.90;52.60;;;;;;5055724;28;20029;-62
2021/03/02 12:49:53;;;;;;;78.97;49.88;;;12.90;52.30;;;;;;5053031;28;20290;-62
2021/03/02 12:52:20;;;;;;;81.22;51.70;;;12.90;52.70;;;;;;5043377;28;20024;-61